Time;durP1;ratioP1;P1;durP2;ratioP2;P2;SDS_P1;SDS_P2;PMS_P1;PMS_P2;Temp;Humidity;BMP_temperature;BMP_pressure;BME280_temperature;BME280_humidity;BME280_pressure;Samples;Min_cycle;Max_cycle;Signal;HPM_P1;HPM_P2
2021/07/13 00:00:46;;;;;;;12.02;9.98;;;20.40;89.40;;;;;;3552563;40;20101;-66
2021/07/13 00:03:12;;;;;;;12.00;10.68;;;20.40;89.30;;;;;;3556788;40;20053;-66
2021/07/13 00:05:38;;;;;;;10.80;9.75;;;20.40;89.00;;;;;;3551603;40;20760;-66
2021/07/13 00:08:04;;;;;;;11.65;10.45;;;20.40;88.90;;;;;;3558252;40;20041;-66
2021/07/13 00:10:33;;;;;;;10.63;9.63;;;20.40;88.80;;;;;;3552730;40;20411;-66
2021/07/13 00:12:59;;;;;;;15.27;10.50;;;20.30;88.80;;;;;;3552956;40;20022;-66
2021/07/13 00:15:30;;;;;;;10.85;9.75;;;20.30;88.70;;;;;;3554461;40;20049;-66
2021/07/13 00:17:57;;;;;;;10.93;9.82;;;20.30;88.80;;;;;;3548098;40;20028;-66
2021/07/13 00:20:23;;;;;;;11.13;9.88;;;20.20;89.60;;;;;;3556786;40;20539;-65
2021/07/13 00:22:49;;;;;;;11.65;9.60;;;20.20;89.00;;;;;;3552217;40;20066;-65
2021/07/13 00:25:16;;;;;;;10.90;9.80;;;20.20;89.20;;;;;;3552591;40;20056;-66
2021/07/13 00:27:43;;;;;;;11.25;10.07;;;20.20;89.30;;;;;;3557037;40;20455;-65
2021/07/13 00:30:11;;;;;;;12.07;10.70;;;20.20;89.50;;;;;;3551207;40;20045;-67
2021/07/13 00:32:38;;;;;;;11.85;10.63;;;20.10;89.60;;;;;;3553127;40;20037;-67
2021/07/13 00:35:05;;;;;;;12.43;10.55;;;20.10;89.60;;;;;;3558012;40;20053;-67
2021/07/13 00:37:30;;;;;;;11.48;9.95;;;20.10;89.80;;;;;;3556893;40;20041;-67
2021/07/13 00:39:56;;;;;;;11.30;10.07;;;20.10;90.00;;;;;;3543686;40;20038;-67
2021/07/13 00:42:22;;;;;;;12.15;10.20;;;20.10;90.00;;;;;;3550642;40;20692;-68
2021/07/13 00:44:48;;;;;;;11.40;10.30;;;20.10;90.10;;;;;;3554490;40;20041;-68
2021/07/13 00:47:19;;;;;;;10.90;9.90;;;20.10;90.10;;;;;;3552587;40;20042;-67
2021/07/13 00:49:46;;;;;;;11.30;9.82;;;20.10;90.30;;;;;;3547102;40;20029;-67
2021/07/13 00:52:12;;;;;;;11.65;10.45;;;20.10;89.70;;;;;;3552989;40;20026;-67
2021/07/13 00:54:39;;;;;;;12.50;11.20;;;20.10;89.40;;;;;;3551484;40;20482;-68
2021/07/13 00:57:12;;;;;;;12.35;10.35;;;20.20;89.70;;;;;;3554614;40;20034;-67
2021/07/13 00:59:40;;;;;;;12.27;9.75;;;20.20;89.60;;;;;;3558761;40;20166;-65
2021/07/13 01:02:08;;;;;;;12.95;9.45;;;20.10;89.40;;;;;;3543446;40;20553;-65
2021/07/13 01:04:37;;;;;;;8.77;7.88;;;20.00;88.80;;;;;;3556639;40;20066;-65
2021/07/13 01:07:26;;;;;;;9.55;8.55;;;20.00;88.60;;;;;;3557386;40;20081;-65
2021/07/13 01:10:01;;;;;;;9.73;8.73;;;19.90;88.60;;;;;;3552706;40;20658;-67
2021/07/13 01:12:47;;;;;;;11.23;9.20;;;19.90;87.90;;;;;;3550521;40;20048;-67
2021/07/13 01:15:19;;;;;;;11.82;8.93;;;19.80;87.20;;;;;;3554523;40;20037;-65
2021/07/13 01:18:08;;;;;;;11.32;9.35;;;19.80;87.50;;;;;;3558768;40;20069;-67
2021/07/13 01:20:46;;;;;;;14.02;9.95;;;19.70;88.20;;;;;;3555820;40;20034;-66
2021/07/13 01:23:20;;;;;;;10.43;9.40;;;19.70;88.80;;;;;;3551374;40;20161;-65
2021/07/13 01:26:06;;;;;;;12.50;11.07;;;19.70;89.30;;;;;;3547256;40;20025;-65
2021/07/13 01:28:45;;;;;;;13.03;11.20;;;19.60;90.00;;;;;;3543060;40;20036;-65
2021/07/13 01:31:16;;;;;;;14.73;12.27;;;19.60;90.30;;;;;;3550077;40;20026;-67
2021/07/13 01:33:49;;;;;;;14.95;12.93;;;19.70;90.50;;;;;;3554935;40;20049;-68
2021/07/13 01:36:36;;;;;;;15.57;13.10;;;19.70;90.50;;;;;;3547626;40;20030;-67
2021/07/13 01:39:04;;;;;;;12.43;11.20;;;19.80;90.70;;;;;;3553495;40;20036;-68
2021/07/13 01:41:31;;;;;;;14.93;12.35;;;19.70;90.50;;;;;;3550332;40;20046;-67
2021/07/13 01:43:58;;;;;;;17.52;12.73;;;19.70;90.50;;;;;;3548468;40;20025;-65
2021/07/13 01:46:26;;;;;;;15.05;12.95;;;19.70;90.20;;;;;;3555356;40;20048;-65
2021/07/13 01:48:57;;;;;;;13.88;12.43;;;19.70;90.10;;;;;;3549607;40;20053;-67
2021/07/13 01:51:25;;;;;;;14.35;12.85;;;19.70;90.20;;;;;;3555855;40;20026;-67
2021/07/13 01:53:52;;;;;;;16.08;13.05;;;19.70;90.40;;;;;;3559612;40;20049;-67
2021/07/13 01:56:19;;;;;;;16.23;12.80;;;19.60;90.70;;;;;;3557631;40;20087;-68
2021/07/13 01:58:46;;;;;;;14.35;12.85;;;19.60;90.80;;;;;;3553395;40;20034;-67
2021/07/13 02:01:21;;;;;;;14.52;11.93;;;19.60;90.70;;;;;;3558325;40;20026;-67
2021/07/13 02:03:50;;;;;;;15.38;12.48;;;19.60;90.50;;;;;;3558106;40;20046;-67
2021/07/13 02:06:20;;;;;;;16.15;11.80;;;19.60;90.40;;;;;;3559713;40;20040;-68
2021/07/13 02:08:50;;;;;;;13.30;11.90;;;19.60;90.30;;;;;;3556655;40;20077;-67
2021/07/13 02:11:16;;;;;;;13.60;12.20;;;19.60;90.20;;;;;;3553589;40;20059;-67
2021/07/13 02:13:42;;;;;;;13.15;11.75;;;19.60;90.10;;;;;;3556770;40;20026;-67
2021/07/13 02:16:07;;;;;;;14.18;12.48;;;19.60;90.10;;;;;;3557242;40;20509;-67
2021/07/13 02:18:33;;;;;;;14.32;11.95;;;19.50;90.00;;;;;;3555447;40;20028;-67
2021/07/13 02:20:59;;;;;;;14.43;12.52;;;19.50;90.40;;;;;;3556241;40;20038;-67
2021/07/13 02:23:25;;;;;;;16.27;13.52;;;19.50;90.50;;;;;;3557172;40;20644;-67
2021/07/13 02:25:55;;;;;;;14.02;11.77;;;19.40;90.50;;;;;;3550947;40;20041;-67
2021/07/13 02:28:30;;;;;;;15.35;13.75;;;19.40;90.60;;;;;;3555914;40;20041;-68
2021/07/13 02:31:01;;;;;;;16.42;13.68;;;19.40;90.70;;;;;;3559578;40;20057;-67
2021/07/13 02:33:41;;;;;;;16.45;12.95;;;19.40;90.80;;;;;;3556622;40;20037;-65
2021/07/13 02:36:13;;;;;;;15.70;14.00;;;19.40;90.70;;;;;;3555484;40;20044;-65
2021/07/13 02:38:40;;;;;;;15.43;13.85;;;19.40;90.90;;;;;;3550627;40;20038;-67
2021/07/13 02:41:06;;;;;;;15.40;13.80;;;19.40;90.90;;;;;;3554981;40;20354;-67
2021/07/13 02:43:33;;;;;;;18.10;14.55;;;19.40;91.00;;;;;;3554897;40;20028;-67
2021/07/13 02:45:59;;;;;;;18.35;14.18;;;19.40;91.00;;;;;;3558027;40;20034;-68
2021/07/13 02:48:25;;;;;;;15.75;13.77;;;19.40;91.00;;;;;;3556358;40;20063;-67
2021/07/13 02:50:55;;;;;;;14.93;13.43;;;19.50;90.90;;;;;;3557137;40;20036;-68
2021/07/13 02:53:22;;;;;;;14.45;12.93;;;19.50;90.80;;;;;;3550329;40;20347;-67
2021/07/13 02:55:49;;;;;;;14.20;12.70;;;19.50;90.60;;;;;;3554838;40;20437;-67
2021/07/13 02:58:16;;;;;;;14.85;13.27;;;19.50;90.50;;;;;;3549695;40;20066;-67
2021/07/13 03:00:42;;;;;;;16.30;13.05;;;19.50;90.60;;;;;;3554214;40;20061;-67
2021/07/13 03:03:09;;;;;;;16.77;14.32;;;19.50;90.50;;;;;;3557231;40;20034;-67
2021/07/13 03:05:35;;;;;;;13.57;12.15;;;19.40;90.80;;;;;;3551225;40;20030;-67
2021/07/13 03:08:02;;;;;;;14.88;12.75;;;19.40;90.70;;;;;;3552253;40;20053;-67
2021/07/13 03:10:29;;;;;;;15.43;12.88;;;19.40;90.80;;;;;;3557285;40;20512;-67
2021/07/13 03:12:56;;;;;;;16.85;14.30;;;19.50;90.90;;;;;;3550506;40;20411;-68
2021/07/13 03:15:29;;;;;;;14.95;13.15;;;19.50;90.90;;;;;;3549948;40;20050;-67
2021/07/13 03:17:56;;;;;;;16.15;13.68;;;19.50;90.90;;;;;;3551339;40;20078;-67
2021/07/13 03:20:23;;;;;;;16.77;14.10;;;19.50;90.90;;;;;;3550621;40;20042;-66
2021/07/13 03:22:50;;;;;;;16.30;12.88;;;19.40;90.80;;;;;;3558769;40;20022;-65
2021/07/13 03:25:30;;;;;;;14.32;12.88;;;19.50;90.90;;;;;;3553707;40;20040;-66
2021/07/13 03:27:58;;;;;;;16.00;13.70;;;19.50;90.70;;;;;;3558157;40;20041;-65
2021/07/13 03:30:24;;;;;;;13.93;12.52;;;19.50;90.60;;;;;;3555940;40;20089;-65
2021/07/13 03:32:53;;;;;;;14.20;12.73;;;19.60;90.50;;;;;;3554879;40;20750;-66
2021/07/13 03:35:20;;;;;;;18.60;14.80;;;19.60;90.40;;;;;;3552273;40;20157;-65
2021/07/13 03:37:51;;;;;;;17.60;13.63;;;19.60;90.50;;;;;;3552363;40;20071;-66
2021/07/13 03:40:18;;;;;;;14.55;13.07;;;19.50;90.60;;;;;;3554290;40;20418;-66
2021/07/13 03:42:48;;;;;;;14.52;12.93;;;19.50;90.70;;;;;;3553313;40;20080;-66
2021/07/13 03:45:18;;;;;;;14.70;13.20;;;19.50;90.70;;;;;;3556782;40;20049;-66
2021/07/13 03:47:54;;;;;;;14.80;13.15;;;19.50;90.60;;;;;;3553367;40;20055;-66
2021/07/13 03:50:22;;;;;;;14.88;13.18;;;19.50;90.50;;;;;;3558044;40;20172;-66
2021/07/13 03:52:48;;;;;;;14.75;13.25;;;19.50;90.40;;;;;;3554300;40;20038;-65
2021/07/13 03:55:14;;;;;;;17.05;14.05;;;19.50;90.40;;;;;;3551797;40;20026;-66
2021/07/13 03:57:41;;;;;;;20.25;15.80;;;19.50;90.70;;;;;;3556929;40;20028;-66
2021/07/13 04:00:10;;;;;;;18.10;14.98;;;19.50;90.50;;;;;;3558054;40;20453;-66
2021/07/13 04:02:39;;;;;;;16.15;14.40;;;19.50;90.60;;;;;;3555949;40;20422;-66
2021/07/13 04:05:06;;;;;;;20.33;14.55;;;19.40;90.80;;;;;;3558400;40;20039;-66
2021/07/13 04:07:34;;;;;;;16.05;13.27;;;19.40;91.00;;;;;;3557739;40;20123;-66
2021/07/13 04:09:59;;;;;;;17.80;14.93;;;19.50;91.00;;;;;;3553180;40;20041;-66
2021/07/13 04:12:25;;;;;;;15.77;14.05;;;19.40;91.00;;;;;;3552330;40;20034;-65
2021/07/13 04:14:51;;;;;;;16.63;14.35;;;19.50;91.30;;;;;;3555429;40;20037;-66
2021/07/13 04:17:16;;;;;;;17.98;14.68;;;19.50;91.00;;;;;;3551542;40;20029;-66
2021/07/13 04:19:42;;;;;;;16.63;13.40;;;19.50;90.90;;;;;;3552587;40;20386;-65
2021/07/13 04:22:08;;;;;;;12.70;10.95;;;19.50;91.00;;;;;;3555532;40;20029;-66
2021/07/13 04:24:34;;;;;;;14.00;12.05;;;19.60;91.20;;;;;;3553529;40;20105;-66
2021/07/13 04:26:59;;;;;;;13.35;11.52;;;19.70;90.80;;;;;;3552929;40;20037;-66
2021/07/13 04:29:25;;;;;;;14.10;11.93;;;19.80;90.60;;;;;;3549756;40;20053;-66
2021/07/13 04:31:51;;;;;;;13.25;11.85;;;19.90;90.20;;;;;;3556110;40;20025;-66
2021/07/13 04:34:17;;;;;;;12.73;11.40;;;20.00;90.00;;;;;;3553389;40;20144;-66
2021/07/13 04:36:42;;;;;;;14.02;11.50;;;20.00;89.60;;;;;;3558983;40;20039;-66
2021/07/13 04:39:09;;;;;;;14.32;11.27;;;20.10;89.50;;;;;;3548057;40;20448;-66
2021/07/13 04:41:35;;;;;;;12.85;11.48;;;20.20;89.50;;;;;;3549374;40;20037;-66
2021/07/13 04:44:01;;;;;;;15.63;11.38;;;20.30;89.40;;;;;;3555972;40;20034;-65
2021/07/13 04:46:27;;;;;;;12.90;11.60;;;20.40;88.40;;;;;;3555849;40;20022;-65
2021/07/13 04:48:54;;;;;;;15.80;12.05;;;20.50;88.20;;;;;;3557339;40;20044;-65
2021/07/13 04:51:20;;;;;;;11.30;10.20;;;20.50;88.20;;;;;;3556488;40;20706;-65
2021/07/13 04:53:46;;;;;;;12.20;10.90;;;20.50;88.30;;;;;;3555733;40;20392;-65
2021/07/13 04:56:12;;;;;;;13.25;11.20;;;20.50;88.00;;;;;;3555671;40;20041;-65
2021/07/13 04:58:37;;;;;;;13.15;11.40;;;20.60;87.90;;;;;;3555292;40;20691;-65
2021/07/13 05:01:03;;;;;;;13.18;11.25;;;20.70;87.30;;;;;;3552869;40;20086;-65
2021/07/13 05:03:29;;;;;;;12.82;11.52;;;20.70;87.50;;;;;;3556927;40;20672;-65
2021/07/13 05:05:55;;;;;;;12.85;11.45;;;20.70;87.10;;;;;;3544543;40;20504;-65
2021/07/13 05:08:22;;;;;;;11.88;10.63;;;20.80;87.10;;;;;;3554049;40;20142;-65
2021/07/13 05:10:48;;;;;;;13.40;11.68;;;20.80;86.30;;;;;;3555436;40;20175;-65
2021/07/13 05:13:15;;;;;;;12.20;10.98;;;20.90;86.80;;;;;;3552819;40;20740;-65
2021/07/13 05:15:40;;;;;;;11.98;10.52;;;20.90;86.90;;;;;;3554873;40;20026;-65
2021/07/13 05:18:11;;;;;;;12.18;10.95;;;21.00;86.50;;;;;;3556949;40;20033;-65
2021/07/13 05:20:39;;;;;;;13.32;11.00;;;21.00;86.40;;;;;;3555323;40;20339;-65
2021/07/13 05:23:08;;;;;;;12.90;10.18;;;21.00;86.20;;;;;;3546927;40;20041;-65
2021/07/13 05:25:35;;;;;;;13.15;10.13;;;21.10;86.10;;;;;;3548067;40;20030;-66
2021/07/13 05:28:02;;;;;;;11.88;10.60;;;21.20;86.60;;;;;;3556173;40;20645;-65
2021/07/13 05:30:28;;;;;;;11.38;10.23;;;21.20;85.60;;;;;;3559250;40;20041;-65
2021/07/13 05:32:54;;;;;;;10.55;9.45;;;21.30;84.50;;;;;;3550690;40;20366;-65
2021/07/13 05:35:20;;;;;;;9.95;8.95;;;21.40;83.50;;;;;;3556697;40;20052;-65
2021/07/13 05:37:46;;;;;;;10.55;9.50;;;21.50;84.90;;;;;;3554813;40;20048;-65
2021/07/13 05:40:13;;;;;;;11.77;8.48;;;21.50;84.80;;;;;;3548279;40;20030;-65
2021/07/13 05:42:39;;;;;;;10.35;9.00;;;21.60;85.20;;;;;;3559790;40;20390;-65
2021/07/13 05:45:06;;;;;;;12.52;9.02;;;21.60;85.00;;;;;;3555864;40;20030;-65
2021/07/13 05:47:32;;;;;;;9.88;8.93;;;21.70;85.00;;;;;;3548632;40;20019;-66
2021/07/13 05:49:58;;;;;;;10.38;9.30;;;21.70;84.60;;;;;;3553292;40;20037;-65
2021/07/13 05:52:25;;;;;;;10.60;9.27;;;21.90;83.20;;;;;;3555046;40;20018;-65
2021/07/13 05:54:51;;;;;;;11.75;8.98;;;22.00;83.80;;;;;;3554937;40;20057;-65
2021/07/13 05:57:17;;;;;;;10.02;9.02;;;22.00;81.60;;;;;;3555168;40;20119;-66
2021/07/13 05:59:43;;;;;;;11.15;8.55;;;22.00;82.80;;;;;;3558312;40;20188;-64
2021/07/13 06:02:08;;;;;;;11.13;8.80;;;22.00;81.00;;;;;;3555307;40;20554;-65
2021/07/13 06:04:34;;;;;;;10.52;8.05;;;22.00;81.60;;;;;;3554514;40;20141;-64
2021/07/13 06:07:00;;;;;;;10.63;8.38;;;22.00;83.00;;;;;;3552083;40;20413;-64
2021/07/13 06:09:29;;;;;;;8.55;7.47;;;22.00;83.00;;;;;;3554902;40;20033;-64
2021/07/13 06:11:58;;;;;;;8.90;8.02;;;22.10;81.80;;;;;;3547719;40;20354;-65
2021/07/13 06:14:24;;;;;;;9.82;8.82;;;22.10;83.40;;;;;;3557938;40;20038;-64
2021/07/13 06:16:51;;;;;;;10.82;9.70;;;22.30;83.30;;;;;;3555549;40;20046;-64
2021/07/13 06:19:17;;;;;;;10.10;9.00;;;22.30;81.80;;;;;;3553731;40;20030;-63
2021/07/13 06:21:44;;;;;;;9.93;8.90;;;22.30;82.00;;;;;;3555614;40;20029;-63
2021/07/13 06:24:10;;;;;;;10.15;9.05;;;22.50;78.60;;;;;;3554931;40;20200;-63
2021/07/13 06:26:35;;;;;;;11.70;10.45;;;22.70;77.50;;;;;;3547339;40;20454;-63
2021/07/13 06:29:02;;;;;;;10.82;9.27;;;22.80;79.60;;;;;;3551750;40;20034;-63
2021/07/13 06:31:28;;;;;;;11.55;10.35;;;22.80;79.90;;;;;;3552279;40;20296;-63
2021/07/13 06:33:53;;;;;;;11.88;9.80;;;23.10;78.80;;;;;;3557038;40;20025;-63
2021/07/13 06:36:19;;;;;;;9.95;8.43;;;23.10;77.20;;;;;;3549691;40;20056;-69
2021/07/13 06:38:45;;;;;;;9.02;7.97;;;23.30;76.60;;;;;;3546667;40;20051;-63
2021/07/13 06:41:11;;;;;;;9.00;6.60;;;23.40;76.70;;;;;;3543579;40;20038;-62
2021/07/13 06:43:36;;;;;;;8.23;6.95;;;23.50;75.00;;;;;;3553236;40;20091;-71
2021/07/13 06:46:02;;;;;;;8.48;6.78;;;23.50;73.40;;;;;;3556400;40;20030;-65
2021/07/13 06:48:28;;;;;;;7.47;6.68;;;23.60;74.90;;;;;;3559776;40;20072;-65
2021/07/13 06:50:54;;;;;;;8.52;7.63;;;23.70;75.10;;;;;;3556799;40;20045;-65
2021/07/13 06:53:20;;;;;;;7.82;6.22;;;23.80;73.50;;;;;;3554593;40;20046;-64
2021/07/13 06:55:46;;;;;;;8.05;7.25;;;23.80;71.70;;;;;;3544685;40;20033;-65
2021/07/13 06:58:12;;;;;;;9.43;7.80;;;23.90;72.80;;;;;;3559087;40;20163;-65
2021/07/13 07:00:38;;;;;;;9.00;7.38;;;23.90;72.90;;;;;;3559437;40;20339;-65
2021/07/13 07:03:03;;;;;;;10.43;8.55;;;24.00;72.50;;;;;;3547191;40;20030;-65
2021/07/13 07:05:29;;;;;;;6.28;5.68;;;24.10;71.30;;;;;;3558670;40;20037;-65
2021/07/13 07:07:55;;;;;;;7.28;6.50;;;24.20;69.80;;;;;;3547785;40;20037;-66
2021/07/13 07:10:21;;;;;;;5.65;5.15;;;24.20;70.10;;;;;;3552668;40;20025;-65
2021/07/13 07:12:49;;;;;;;6.88;6.18;;;24.30;70.60;;;;;;3558176;40;20034;-64
2021/07/13 07:15:16;;;;;;;5.82;5.15;;;24.40;70.00;;;;;;3554770;40;20053;-66
2021/07/13 07:17:50;;;;;;;7.10;5.10;;;24.40;67.00;;;;;;3558952;40;20026;-65
2021/07/13 07:20:17;;;;;;;5.75;5.15;;;24.60;67.70;;;;;;3556119;40;20037;-65
2021/07/13 07:22:43;;;;;;;5.38;4.63;;;24.70;67.60;;;;;;3551628;40;20282;-64
2021/07/13 07:25:10;;;;;;;6.25;5.07;;;24.70;66.40;;;;;;3551775;40;20556;-65
2021/07/13 07:27:37;;;;;;;5.88;5.38;;;24.70;67.80;;;;;;3544841;40;20038;-65
2021/07/13 07:30:06;;;;;;;6.32;5.63;;;24.80;68.60;;;;;;3550519;40;20093;-65
2021/07/13 07:32:33;;;;;;;4.82;4.32;;;25.00;67.60;;;;;;3554459;40;20037;-65
2021/07/13 07:34:59;;;;;;;7.10;4.75;;;25.00;65.00;;;;;;3557698;40;20757;-65
2021/07/13 07:37:24;;;;;;;6.30;5.22;;;25.10;64.60;;;;;;3557504;40;20045;-65
2021/07/13 07:39:50;;;;;;;6.38;5.25;;;25.20;65.70;;;;;;3555969;40;20046;-67
2021/07/13 07:42:16;;;;;;;5.88;5.18;;;25.20;64.60;;;;;;3543655;40;20037;-70
2021/07/13 07:44:42;;;;;;;5.68;4.97;;;25.30;63.70;;;;;;3555588;40;20053;-68
2021/07/13 07:47:07;;;;;;;4.97;3.63;;;25.30;63.20;;;;;;3558897;40;20106;-74
2021/07/13 07:49:33;;;;;;;3.58;3.28;;;25.40;63.40;;;;;;3547731;40;20026;-73
2021/07/13 07:51:59;;;;;;;4.18;3.67;;;25.40;62.80;;;;;;3555754;40;20029;-73
2021/07/13 07:54:27;;;;;;;3.70;2.70;;;25.50;62.50;;;;;;3555642;40;20041;-72
2021/07/13 07:56:52;;;;;;;2.97;2.72;;;25.50;60.40;;;;;;3555827;40;20041;-72
2021/07/13 07:59:20;;;;;;;3.00;2.70;;;25.60;60.20;;;;;;3552452;40;20096;-72
2021/07/13 08:01:47;;;;;;;4.45;3.30;;;25.60;60.50;;;;;;3553973;40;20046;-72
2021/07/13 08:04:13;;;;;;;4.40;3.70;;;25.80;59.50;;;;;;3557710;40;20038;-69
2021/07/13 08:06:39;;;;;;;3.35;3.05;;;25.80;61.60;;;;;;3555941;40;20030;-70
2021/07/13 08:09:07;;;;;;;8.68;2.80;;;25.90;59.80;;;;;;3554867;40;20407;-69
2021/07/13 08:11:37;;;;;;;4.20;2.58;;;26.10;59.00;;;;;;3555198;40;20037;-68
2021/07/13 08:14:04;;;;;;;4.13;2.22;;;26.10;59.40;;;;;;3556263;40;20029;-69
2021/07/13 08:16:37;;;;;;;2.70;2.47;;;26.20;58.00;;;;;;3558520;40;20704;-69
2021/07/13 08:19:05;;;;;;;3.13;2.20;;;26.30;58.80;;;;;;3543334;40;20067;-68
2021/07/13 08:21:31;;;;;;;2.75;2.03;;;26.40;57.20;;;;;;3554558;40;20037;-67
2021/07/13 08:23:58;;;;;;;8.15;5.07;;;26.50;57.60;;;;;;3556586;40;20044;-68
2021/07/13 08:26:25;;;;;;;3.13;2.25;;;26.50;58.50;;;;;;3547910;40;20500;-68
2021/07/13 08:28:50;;;;;;;3.13;2.45;;;26.60;57.60;;;;;;3555723;40;20292;-67
2021/07/13 08:31:16;;;;;;;2.30;2.13;;;26.60;56.90;;;;;;3552525;40;20041;-68
2021/07/13 08:33:42;;;;;;;4.10;2.15;;;26.80;57.30;;;;;;3555334;40;20620;-72
2021/07/13 08:36:08;;;;;;;2.58;2.00;;;26.80;56.00;;;;;;3548732;40;20607;-67
2021/07/13 08:38:34;;;;;;;2.72;2.15;;;26.80;57.60;;;;;;3555726;40;20053;-67
2021/07/13 08:41:01;;;;;;;2.25;1.75;;;26.80;55.20;;;;;;3554099;40;20323;-69
2021/07/13 08:43:28;;;;;;;2.00;1.90;;;26.90;55.80;;;;;;3555711;40;20427;-68
2021/07/13 08:45:57;;;;;;;2.33;2.00;;;26.90;55.40;;;;;;3556573;40;20081;-68
2021/07/13 08:48:25;;;;;;;2.95;1.90;;;27.00;54.60;;;;;;3544179;40;20026;-68
2021/07/13 08:50:59;;;;;;;2.10;1.90;;;27.20;55.10;;;;;;3543654;40;20049;-68
2021/07/13 08:53:25;;;;;;;2.25;2.03;;;27.40;54.40;;;;;;3553784;40;20466;-68
2021/07/13 08:55:54;;;;;;;1.90;1.80;;;27.70;53.80;;;;;;3554478;40;20037;-67
2021/07/13 08:58:22;;;;;;;4.93;2.00;;;27.70;53.50;;;;;;3555093;40;20046;-68
2021/07/13 09:00:49;;;;;;;4.45;1.80;;;27.70;53.30;;;;;;3553486;40;20025;-68
2021/07/13 09:03:18;;;;;;;4.45;1.90;;;27.70;53.60;;;;;;3554172;40;20041;-67
2021/07/13 09:05:49;;;;;;;2.25;1.70;;;27.70;53.80;;;;;;3556651;40;20112;-68
2021/07/13 09:08:20;;;;;;;3.85;1.80;;;27.70;53.10;;;;;;3556746;40;20041;-68
2021/07/13 09:11:03;;;;;;;2.00;1.67;;;27.70;54.00;;;;;;3554876;40;20029;-67
2021/07/13 09:13:31;;;;;;;1.92;1.70;;;27.80;52.40;;;;;;3555187;40;20057;-68
2021/07/13 09:15:59;;;;;;;3.33;2.20;;;27.90;53.20;;;;;;3555462;40;20068;-68
2021/07/13 09:18:30;;;;;;;3.58;1.65;;;27.90;54.50;;;;;;3556181;40;20044;-68
2021/07/13 09:21:21;;;;;;;1.80;1.70;;;28.00;52.70;;;;;;3554414;40;20731;-68
2021/07/13 09:24:08;;;;;;;2.28;2.05;;;28.00;50.80;;;;;;3556862;40;20303;-67
2021/07/13 09:26:53;;;;;;;2.25;2.05;;;28.00;52.80;;;;;;3553226;40;20173;-68
2021/07/13 09:29:42;;;;;;;2.15;1.92;;;28.00;52.70;;;;;;3560043;40;20033;-68
2021/07/13 09:32:24;;;;;;;2.40;2.20;;;28.00;51.80;;;;;;3555965;40;20032;-67
2021/07/13 09:35:04;;;;;;;2.00;1.80;;;28.10;52.60;;;;;;3552623;40;20053;-67
2021/07/13 09:37:38;;;;;;;5.00;2.67;;;28.10;51.20;;;;;;3553208;40;20079;-67
2021/07/13 09:40:06;;;;;;;6.38;2.03;;;28.20;51.00;;;;;;3552437;40;20165;-67
2021/07/13 09:42:41;;;;;;;2.33;2.13;;;28.10;49.70;;;;;;3550874;40;20426;-66
2021/07/13 09:45:21;;;;;;;2.67;2.42;;;28.10;52.40;;;;;;3555918;40;20112;-69
2021/07/13 09:47:48;;;;;;;2.63;2.10;;;28.10;51.60;;;;;;3557203;40;20030;-66
2021/07/13 09:50:30;;;;;;;3.38;1.85;;;28.10;51.30;;;;;;3555449;40;20038;-66
2021/07/13 09:53:01;;;;;;;2.15;1.85;;;28.30;52.00;;;;;;3554024;40;20050;-66
2021/07/13 09:55:27;;;;;;;2.17;1.90;;;28.30;51.60;;;;;;3551942;40;20917;-66
2021/07/13 09:57:53;;;;;;;2.20;2.03;;;28.30;50.60;;;;;;3556252;40;20424;-66
2021/07/13 10:00:20;;;;;;;2.42;2.00;;;28.30;51.80;;;;;;3556841;40;20026;-66
2021/07/13 10:02:46;;;;;;;2.67;2.05;;;28.40;52.40;;;;;;3546850;40;20316;-67
2021/07/13 10:05:13;;;;;;;4.03;2.00;;;28.50;50.90;;;;;;3548456;40;20042;-67
2021/07/13 10:07:40;;;;;;;3.88;2.00;;;28.40;52.20;;;;;;3554715;40;20048;-67
2021/07/13 10:10:11;;;;;;;3.08;2.00;;;28.30;52.20;;;;;;3555693;40;20026;-67
2021/07/13 10:12:37;;;;;;;2.53;1.90;;;28.40;50.80;;;;;;3542723;40;20061;-67
2021/07/13 10:15:03;;;;;;;2.72;1.88;;;28.60;51.00;;;;;;3554510;40;20120;-67
2021/07/13 10:17:31;;;;;;;2.70;2.00;;;28.60;51.10;;;;;;3558283;40;20033;-67
2021/07/13 10:20:09;;;;;;;2.45;1.90;;;28.70;50.20;;;;;;3546589;40;20062;-67
2021/07/13 10:22:39;;;;;;;1.80;1.70;;;28.70;51.60;;;;;;3544223;40;20064;-66
2021/07/13 10:25:05;;;;;;;2.10;1.90;;;28.70;50.60;;;;;;3554717;40;20033;-67
2021/07/13 10:27:57;;;;;;;2.40;1.90;;;28.70;51.00;;;;;;3554251;40;20026;-67
2021/07/13 10:30:23;;;;;;;2.30;1.50;;;28.70;49.80;;;;;;3537952;40;20350;-67
2021/07/13 10:32:49;;;;;;;2.03;1.75;;;28.80;50.70;;;;;;3546194;40;20061;-67
2021/07/13 10:35:23;;;;;;;2.65;2.00;;;28.80;51.80;;;;;;3557627;40;20059;-67
2021/07/13 10:37:50;;;;;;;3.13;2.10;;;28.90;51.10;;;;;;3558268;40;20030;-67
2021/07/13 10:40:25;;;;;;;2.72;1.75;;;28.90;51.80;;;;;;3548219;40;20272;-67
2021/07/13 10:42:59;;;;;;;3.33;1.88;;;29.00;52.00;;;;;;3559805;40;20034;-67
2021/07/13 10:45:31;;;;;;;2.05;1.88;;;29.00;50.50;;;;;;3545151;40;20038;-68
2021/07/13 10:48:08;;;;;;;2.75;2.30;;;29.10;50.40;;;;;;3551412;40;20037;-67
2021/07/13 10:50:36;;;;;;;2.13;1.65;;;29.10;50.60;;;;;;3555471;40;20029;-67
2021/07/13 10:53:18;;;;;;;3.63;2.28;;;29.10;49.90;;;;;;3549534;40;20026;-67
2021/07/13 10:55:49;;;;;;;3.38;1.95;;;29.00;51.90;;;;;;3553235;40;20121;-68
2021/07/13 10:58:15;;;;;;;2.65;2.10;;;29.10;51.60;;;;;;3547934;40;20056;-67
2021/07/13 11:00:50;;;;;;;3.22;2.00;;;29.00;49.70;;;;;;3554283;40;20363;-69
2021/07/13 11:03:35;;;;;;;2.65;2.00;;;29.20;51.30;;;;;;3556085;40;20108;-71
2021/07/13 11:06:07;;;;;;;4.23;2.37;;;29.40;51.00;;;;;;3559899;40;20034;-68
2021/07/13 11:11:15;;;;;;;3.10;2.13;;;29.60;51.20;;;;;;3547794;40;20747;-69
2021/07/13 11:13:48;;;;;;;2.40;2.17;;;29.70;51.40;;;;;;3553314;40;20152;-69
2021/07/13 11:16:20;;;;;;;4.88;2.08;;;29.80;51.50;;;;;;3553454;40;20037;-69
2021/07/13 11:18:46;;;;;;;2.90;2.17;;;29.90;50.60;;;;;;3554546;40;20033;-69
2021/07/13 11:21:22;;;;;;;2.28;2.08;;;30.00;50.20;;;;;;3544260;40;20030;-69
2021/07/13 11:23:59;;;;;;;2.88;2.30;;;30.00;49.70;;;;;;3550528;40;20071;-68
2021/07/13 11:26:26;;;;;;;3.20;2.22;;;30.00;50.10;;;;;;3555430;40;20176;-68
2021/07/13 11:28:54;;;;;;;3.08;2.28;;;30.00;49.30;;;;;;3548896;40;20025;-69
2021/07/13 11:31:25;;;;;;;1.88;1.77;;;29.90;50.50;;;;;;3552151;40;20045;-68
2021/07/13 11:33:59;;;;;;;5.07;2.05;;;29.90;49.40;;;;;;3556180;40;20053;-69
2021/07/13 11:36:42;;;;;;;5.30;2.17;;;29.70;48.10;;;;;;3558586;40;20033;-68
2021/07/13 11:39:22;;;;;;;2.28;2.08;;;29.60;50.00;;;;;;3554826;40;20025;-68
2021/07/13 11:41:52;;;;;;;1.98;1.77;;;29.60;48.50;;;;;;3552974;40;20029;-69
2021/07/13 11:44:18;;;;;;;4.10;2.20;;;29.60;53.30;;;;;;3557215;40;20026;-68
2021/07/13 11:46:46;;;;;;;1.90;1.80;;;29.60;50.30;;;;;;3558287;40;20079;-68
2021/07/13 11:49:18;;;;;;;3.38;2.63;;;29.80;49.00;;;;;;3556910;40;20037;-68
2021/07/13 11:51:50;;;;;;;4.00;3.05;;;29.90;50.60;;;;;;3555567;40;20033;-68
2021/07/13 11:54:17;;;;;;;6.07;2.10;;;30.00;51.40;;;;;;3551374;40;20077;-68
2021/07/13 11:56:54;;;;;;;2.35;2.10;;;30.20;49.30;;;;;;3554345;40;20689;-68
2021/07/13 11:59:22;;;;;;;2.17;1.95;;;30.30;48.90;;;;;;3557698;40;20139;-68
2021/07/13 12:01:54;;;;;;;2.60;1.92;;;30.40;49.50;;;;;;3557152;40;20029;-69
2021/07/13 12:04:21;;;;;;;2.70;1.90;;;30.40;50.30;;;;;;3555421;40;20107;-69
2021/07/13 12:06:54;;;;;;;3.03;2.10;;;30.40;49.10;;;;;;3559676;40;20069;-68
2021/07/13 12:09:31;;;;;;;2.30;2.10;;;30.40;47.60;;;;;;3556691;40;20030;-66
2021/07/13 12:12:05;;;;;;;1.90;1.80;;;30.30;47.90;;;;;;3542205;40;20042;-68
2021/07/13 12:14:31;;;;;;;2.25;2.05;;;30.00;48.50;;;;;;3544984;40;20218;-69
2021/07/13 12:16:58;;;;;;;2.30;2.10;;;29.90;50.10;;;;;;3548970;40;20672;-68
2021/07/13 12:19:26;;;;;;;2.95;2.33;;;29.80;52.30;;;;;;3554069;40;20029;-68
2021/07/13 12:21:53;;;;;;;3.83;1.98;;;29.80;48.60;;;;;;3553674;40;20136;-69
2021/07/13 12:24:24;;;;;;;2.50;2.30;;;29.90;50.50;;;;;;3549559;40;20022;-70
2021/07/13 12:26:55;;;;;;;2.45;2.10;;;30.00;48.30;;;;;;3556403;40;20034;-70
2021/07/13 12:29:27;;;;;;;2.70;2.50;;;29.90;48.00;;;;;;3555482;40;20036;-69
2021/07/13 12:31:55;;;;;;;2.90;2.15;;;29.90;50.20;;;;;;3547134;40;20069;-69
2021/07/13 12:34:36;;;;;;;2.40;2.20;;;29.90;52.00;;;;;;3545813;40;20025;-70
2021/07/13 12:37:04;;;;;;;2.40;2.20;;;29.90;48.70;;;;;;3556859;40;20037;-69
2021/07/13 12:39:30;;;;;;;2.05;1.88;;;29.80;47.80;;;;;;3554445;40;20549;-69
2021/07/13 12:41:59;;;;;;;2.22;2.10;;;29.80;49.00;;;;;;3558168;40;20048;-70
2021/07/13 12:44:26;;;;;;;2.55;2.35;;;29.90;49.30;;;;;;3546198;40;20062;-70
2021/07/13 12:46:51;;;;;;;2.80;1.80;;;30.00;49.80;;;;;;3553150;40;20137;-72
2021/07/13 12:49:17;;;;;;;2.15;1.95;;;30.10;47.90;;;;;;3542345;40;20026;-71